createdAt,value
2022-09-12T00:00:30.303Z,28.80
2022-09-12T00:03:58.512Z,25.40
2022-09-12T00:07:36.883Z,30.80
2022-09-12T00:11:06.207Z,28.60
2022-09-12T00:14:32.847Z,27.20
2022-09-12T00:18:04.216Z,25.10
2022-09-12T00:21:31.894Z,24.30
2022-09-12T00:24:49.168Z,26.40
2022-09-12T00:28:16.422Z,25.70
2022-09-12T00:31:51.332Z,27.30
2022-09-12T00:35:18.148Z,29.60
2022-09-12T00:38:45.288Z,24.20
2022-09-12T00:42:18.196Z,27.20
2022-09-12T00:45:38.323Z,28.10
2022-09-12T00:48:58.146Z,27.50
2022-09-12T00:52:02.859Z,30.30
2022-09-12T00:55:30.023Z,32.50
2022-09-12T00:58:58.142Z,25.70
2022-09-12T01:02:28.688Z,28.50
2022-09-12T01:05:57.947Z,24.40
2022-09-12T01:09:16.934Z,28.40
2022-09-12T01:12:44.920Z,31.60
2022-09-12T01:16:15.990Z,28.60
2022-09-12T01:19:41.663Z,27.50
2022-09-12T01:23:19.880Z,30.10
2022-09-12T01:26:44.381Z,34.30
2022-09-12T01:30:27.499Z,29.50
2022-09-12T01:34:07.339Z,27.60
2022-09-12T01:37:34.431Z,31.20
2022-09-12T01:41:03.490Z,35.70
2022-09-12T01:44:39.907Z,25.20
2022-09-12T01:47:52.927Z,35.50
2022-09-12T01:51:23.035Z,28.20
2022-09-12T01:54:53.467Z,25.30
2022-09-12T01:58:34.108Z,28.60
2022-09-12T02:01:49.193Z,28.90
2022-09-12T02:05:19.019Z,30.60
2022-09-12T02:09:04.362Z,24.70
2022-09-12T02:12:31.813Z,24.80
2022-09-12T02:15:41.228Z,28.90
2022-09-12T02:19:08.216Z,27.70
2022-09-12T02:22:25.026Z,28.50
2022-09-12T02:25:52.697Z,25.40
2022-09-12T02:29:20.141Z,27.00
2022-09-12T02:36:35.331Z,24.70
2022-09-12T02:39:32.964Z,24.50
2022-09-12T02:42:50.740Z,27.80
2022-09-12T02:46:17.858Z,24.70
2022-09-12T02:49:30.422Z,29.70
2022-09-12T02:52:47.355Z,28.00
2022-09-12T02:56:07.664Z,27.70
2022-09-12T02:59:17.484Z,35.40
2022-09-12T03:02:54.768Z,28.80
2022-09-12T03:06:12.937Z,32.00
2022-09-12T03:09:50.381Z,26.00
2022-09-12T03:13:02.034Z,33.40
2022-09-12T03:16:47.793Z,24.80
2022-09-12T03:20:19.523Z,26.80
2022-09-12T03:24:01.470Z,31.70
2022-09-12T03:27:18.184Z,26.50
2022-09-12T03:30:44.944Z,26.70
2022-09-12T03:34:14.187Z,30.70
2022-09-12T03:37:33.835Z,27.30
2022-09-12T03:40:40.283Z,23.30
2022-09-12T03:43:46.233Z,25.70
2022-09-12T03:47:08.036Z,28.30
2022-09-12T03:50:37.477Z,23.00
2022-09-12T03:54:04.417Z,21.70
2022-09-12T03:57:31.887Z,29.40
2022-09-12T04:00:49.287Z,26.00
2022-09-12T04:04:02.868Z,22.00
2022-09-12T04:07:29.625Z,26.90
2022-09-12T04:10:46.983Z,30.00
2022-09-12T04:14:02.964Z,25.70
2022-09-12T04:17:31.580Z,24.40
2022-09-12T04:20:51.208Z,25.70
2022-09-12T04:24:21.945Z,25.10
2022-09-12T04:27:48.300Z,24.80
2022-09-12T04:31:15.163Z,28.20
2022-09-12T04:34:43.137Z,28.70
2022-09-12T04:38:11.088Z,20.30
2022-09-12T04:40:58.245Z,22.40
2022-09-12T04:44:08.008Z,26.10
2022-09-12T04:47:04.802Z,24.10
2022-09-12T04:50:15.188Z,23.80
2022-09-12T04:53:42.426Z,27.30
2022-09-12T04:57:10.053Z,29.00
2022-09-12T05:00:28.749Z,25.40
2022-09-12T05:03:36.338Z,34.30
2022-09-12T05:06:32.316Z,27.20
2022-09-12T05:09:50.530Z,27.80
2022-09-12T05:13:17.295Z,25.90
2022-09-12T05:16:49.031Z,22.40
2022-09-12T05:19:30.210Z,25.00
2022-09-12T05:22:50.017Z,27.80
2022-09-12T05:26:03.969Z,31.30
2022-09-12T05:29:34.188Z,20.20
2022-09-12T05:33:01.206Z,23.70
2022-09-12T05:36:22.742Z,27.50
2022-09-12T05:39:33.221Z,27.20
2022-09-12T05:42:42.753Z,23.30
2022-09-12T05:46:12.069Z,26.70
2022-09-12T05:49:13.156Z,22.30
2022-09-12T05:52:29.868Z,23.50
2022-09-12T05:55:57.405Z,22.30
2022-09-12T05:59:18.122Z,21.00
2022-09-12T06:02:45.130Z,25.40
2022-09-12T06:06:03.753Z,27.10
2022-09-12T06:09:14.897Z,25.70
2022-09-12T06:12:42.644Z,24.70
2022-09-12T06:16:02.615Z,32.50
2022-09-12T06:19:22.656Z,23.50
2022-09-12T06:22:48.786Z,26.60
2022-09-12T06:26:16.204Z,23.00
2022-09-12T06:29:44.124Z,26.80
2022-09-12T06:33:11.490Z,26.90
2022-09-12T06:36:30.204Z,24.50
2022-09-12T06:40:01.942Z,28.70
2022-09-12T06:43:29.356Z,24.90
2022-09-12T06:46:56.436Z,24.30
2022-09-12T06:50:23.466Z,27.00
2022-09-12T06:53:50.643Z,24.00
2022-09-12T06:57:17.982Z,23.30
2022-09-12T07:00:42.592Z,26.30
2022-09-12T07:04:09.756Z,28.30
2022-09-12T07:07:39.854Z,23.30
2022-09-12T07:10:59.360Z,24.10
2022-09-12T07:13:52.866Z,27.40
2022-09-12T07:17:10.023Z,21.00
2022-09-12T07:20:36.473Z,24.40
2022-09-12T07:23:47.937Z,21.40
2022-09-12T07:26:29.840Z,31.00
2022-09-12T07:29:57.863Z,27.80
2022-09-12T07:33:26.227Z,24.50
2022-09-12T07:36:45.858Z,31.20
2022-09-12T07:40:15.686Z,29.90
2022-09-12T07:43:42.579Z,28.80
2022-09-12T07:47:10.594Z,27.30
2022-09-12T07:50:29.279Z,20.00
2022-09-12T07:54:00.100Z,24.70
2022-09-12T07:57:18.234Z,27.30
2022-09-12T08:00:38.923Z,26.90
2022-09-12T08:03:56.758Z,27.50
2022-09-12T08:07:22.912Z,30.60
2022-09-12T08:10:42.887Z,24.20
2022-09-12T08:14:09.607Z,22.70
2022-09-12T08:17:36.075Z,28.80
2022-09-12T08:21:04.841Z,27.20
2022-09-12T08:24:35.068Z,25.90
2022-09-12T08:28:03.964Z,25.60
2022-09-12T08:31:21.521Z,25.40
2022-09-12T08:34:39.395Z,28.20
2022-09-12T08:37:56.206Z,29.80
2022-09-12T08:41:33.134Z,32.70
2022-09-12T08:44:50.182Z,24.50
2022-09-12T08:48:29.858Z,28.90
2022-09-12T08:51:56.580Z,27.80
2022-09-12T08:55:13.755Z,30.00
2022-09-12T08:58:11.134Z,28.10
2022-09-12T09:01:21.950Z,25.20
2022-09-12T09:05:07.110Z,33.10
2022-09-12T09:08:32.497Z,29.70
2022-09-12T09:11:54.385Z,28.70
2022-09-12T09:15:16.682Z,30.00
2022-09-12T09:18:47.439Z,28.70
2022-09-12T09:22:15.460Z,30.80
2022-09-12T09:24:58.927Z,29.10
2022-09-12T09:28:05.193Z,29.00
2022-09-12T09:31:15.315Z,27.20
2022-09-12T09:34:32.578Z,30.70
2022-09-12T09:38:02.681Z,27.70
2022-09-12T09:41:34.027Z,27.60
2022-09-12T09:45:02.444Z,27.00
2022-09-12T09:48:16.842Z,26.80
2022-09-12T09:51:06.218Z,26.50
2022-09-12T09:54:07.127Z,26.00
2022-09-12T09:57:29.986Z,27.60
2022-09-12T10:03:36.050Z,28.40
2022-09-12T10:06:52.855Z,30.00
2022-09-12T10:10:25.755Z,32.00
2022-09-12T10:13:20.582Z,30.30
2022-09-12T10:15:39.634Z,26.00
2022-09-12T10:18:41.212Z,24.90
2022-09-12T10:21:58.224Z,23.80
2022-09-12T10:25:24.920Z,30.90
2022-09-12T10:28:25.270Z,23.50
2022-09-12T10:31:53.270Z,27.60
2022-09-12T10:35:29.717Z,23.10
2022-09-12T10:38:39.344Z,26.00
2022-09-12T10:41:40.918Z,27.50
2022-09-12T10:44:40.999Z,19.10
2022-09-12T10:48:23.149Z,26.90
2022-09-12T10:51:23.071Z,30.20
2022-09-12T10:54:51.176Z,28.50
2022-09-12T10:58:15.152Z,29.10
2022-09-12T11:00:59.439Z,25.80
2022-09-12T11:04:35.074Z,27.30
2022-09-12T11:08:05.368Z,26.40
2022-09-12T11:11:24.151Z,25.50
2022-09-12T11:14:49.728Z,27.80
2022-09-12T11:17:56.853Z,30.00
2022-09-12T11:21:14.039Z,24.30
2022-09-12T11:24:19.215Z,30.20
2022-09-12T11:27:31.248Z,23.20
2022-09-12T11:30:58.252Z,30.80
2022-09-12T11:34:19.940Z,30.80
2022-09-12T11:37:42.048Z,33.00
2022-09-12T11:41:18.051Z,35.80
2022-09-12T11:44:52.446Z,25.80
2022-09-12T11:48:09.750Z,29.50
2022-09-12T11:51:20.030Z,27.60
2022-09-12T11:54:56.380Z,26.70
2022-09-12T11:58:11.679Z,28.00
2022-09-12T12:01:38.849Z,28.20
2022-09-12T12:04:53.078Z,24.10
2022-09-12T12:07:49.807Z,27.70
2022-09-12T12:10:10.174Z,28.10
2022-09-12T12:12:59.364Z,29.50
2022-09-12T12:16:16.256Z,24.70
2022-09-12T12:19:48.759Z,25.20
2022-09-12T12:23:12.717Z,26.80
2022-09-12T12:26:33.323Z,25.20
2022-09-12T12:29:57.746Z,24.60
2022-09-12T12:33:24.116Z,30.60
2022-09-12T12:36:02.813Z,28.80
2022-09-12T12:38:54.532Z,27.70
2022-09-12T16:04:25.716Z,34.20
2022-09-12T16:07:56.078Z,34.40
2022-09-12T16:14:59.111Z,31.70
2022-09-12T16:18:16.742Z,37.10
2022-09-12T16:21:33.515Z,30.40
2022-09-12T16:25:00.101Z,43.30
2022-09-12T16:28:06.008Z,38.70
2022-09-12T16:34:39.470Z,35.20
2022-09-12T16:37:54.949Z,31.80
2022-09-12T16:41:02.231Z,32.10
2022-09-12T16:44:31.140Z,33.50
2022-09-12T16:47:28.712Z,43.60
2022-09-12T16:50:46.556Z,44.50
2022-09-12T16:53:53.350Z,36.90
2022-09-12T16:56:51.151Z,41.10
2022-09-12T16:59:21.163Z,36.40
2022-09-12T17:02:28.576Z,42.20
2022-09-12T17:04:59.678Z,45.90
2022-09-12T17:07:56.767Z,37.70
2022-09-12T17:10:49.972Z,36.90
2022-09-12T17:14:09.552Z,36.50
2022-09-12T17:17:21.625Z,39.00
2022-09-12T17:20:48.813Z,42.70
2022-09-12T17:23:55.769Z,43.20
2022-09-12T17:27:23.546Z,37.10
2022-09-12T17:30:30.946Z,37.30
2022-09-12T17:33:48.531Z,41.30
2022-09-12T17:37:15.426Z,32.10
2022-09-12T17:40:58.975Z,37.50
2022-09-12T17:44:06.157Z,40.70
2022-09-12T17:47:05.290Z,37.70
2022-09-12T17:50:39.410Z,36.30
2022-09-12T17:53:45.594Z,37.80
2022-09-12T17:57:06.136Z,37.80
2022-09-12T18:00:36.294Z,34.80
2022-09-12T18:03:53.282Z,34.40
2022-09-12T18:07:11.947Z,32.00
2022-09-12T18:10:29.394Z,33.90
2022-09-12T18:13:56.374Z,34.40
2022-09-12T18:17:06.384Z,33.60
2022-09-12T18:20:13.493Z,32.10
2022-09-12T18:23:01.981Z,34.20
2022-09-12T18:26:20.282Z,30.80
2022-09-12T18:30:04.271Z,34.00
2022-09-12T18:33:36.257Z,30.20
2022-09-12T18:37:12.526Z,30.70
2022-09-12T18:40:19.332Z,28.20
2022-09-12T18:43:36.616Z,28.10
2022-09-12T18:47:06.298Z,29.30
2022-09-12T18:50:33.049Z,23.90
2022-09-12T18:53:58.603Z,23.60
2022-09-12T18:57:15.412Z,22.50
2022-09-12T19:00:26.175Z,32.20
2022-09-12T19:03:45.883Z,29.80
2022-09-12T19:06:52.362Z,28.60
2022-09-12T19:10:09.249Z,25.20
2022-09-12T19:13:16.925Z,27.20
2022-09-12T19:16:06.351Z,28.70
2022-09-12T19:19:06.239Z,26.20
2022-09-12T19:22:25.706Z,20.50
2022-09-12T19:25:52.464Z,27.00
2022-09-12T19:28:52.061Z,30.20
2022-09-12T19:31:48.835Z,31.40
2022-09-12T19:35:19.606Z,29.30
2022-09-12T19:38:48.447Z,27.60
2022-09-12T19:42:08.095Z,29.00
2022-09-12T19:45:26.589Z,28.40
2022-09-12T19:48:48.934Z,25.40
2022-09-12T19:52:17.541Z,22.30
2022-09-12T19:55:24.545Z,23.20
2022-09-12T19:58:56.639Z,29.10
2022-09-12T20:02:17.444Z,24.10
2022-09-12T20:05:44.332Z,23.00
2022-09-12T20:09:11.095Z,31.00
2022-09-12T20:12:22.146Z,28.60
2022-09-12T20:15:38.792Z,23.70
2022-09-12T20:18:56.569Z,25.90
2022-09-12T20:21:48.134Z,28.10
2022-09-12T20:25:14.225Z,26.40
2022-09-12T20:28:22.104Z,24.70
2022-09-12T20:31:32.260Z,26.20
2022-09-12T20:34:57.726Z,33.40
2022-09-12T20:38:14.638Z,30.40
2022-09-12T20:41:29.778Z,32.20
2022-09-12T20:44:31.314Z,26.20
2022-09-12T20:47:27.305Z,33.10
2022-09-12T20:50:31.967Z,27.20
2022-09-12T20:53:31.720Z,26.20
2022-09-12T20:56:35.302Z,24.60
2022-09-12T20:59:43.572Z,28.60
2022-09-12T21:02:44.403Z,30.10
2022-09-12T21:05:25.940Z,30.20
2022-09-12T21:08:36.263Z,27.00
2022-09-12T21:11:29.802Z,23.90
2022-09-12T21:14:39.760Z,27.30
2022-09-12T21:17:40.312Z,25.50
2022-09-12T21:20:37.865Z,32.00
2022-09-12T21:23:53.601Z,25.10
2022-09-12T21:26:36.759Z,22.90
2022-09-12T21:29:29.924Z,35.30
2022-09-12T21:32:03.194Z,27.80
2022-09-12T21:34:50.769Z,31.60
2022-09-12T21:38:07.396Z,29.20
2022-09-12T21:41:24.579Z,31.80
2022-09-12T21:44:42.518Z,31.80
2022-09-12T21:47:48.307Z,36.30
2022-09-12T21:51:04.235Z,27.50
2022-09-12T21:54:13.555Z,29.30
2022-09-12T21:56:55.146Z,28.50
2022-09-12T22:00:22.052Z,24.20
2022-09-12T22:03:39.906Z,27.10
2022-09-12T22:07:07.352Z,33.20
2022-09-12T22:10:24.980Z,28.10
2022-09-12T22:13:23.062Z,30.90
2022-09-12T22:16:54.285Z,32.40
2022-09-12T22:20:12.352Z,35.70
2022-09-12T22:23:39.198Z,38.10
2022-09-12T22:26:51.277Z,28.40
2022-09-12T22:30:18.492Z,33.40
2022-09-12T22:33:39.067Z,29.50
2022-09-12T22:36:38.795Z,30.00
2022-09-12T22:39:55.998Z,31.60
2022-09-12T22:42:53.815Z,34.20
2022-09-12T22:46:00.801Z,32.40
2022-09-12T22:49:08.993Z,34.50
2022-09-12T22:52:36.667Z,31.50
2022-09-12T22:55:22.660Z,37.10
2022-09-12T22:58:30.209Z,35.70
2022-09-12T23:01:29.365Z,34.80
2022-09-12T23:04:38.799Z,35.60
2022-09-12T23:07:19.101Z,33.10
2022-09-12T23:10:20.701Z,38.10
2022-09-12T23:12:57.412Z,38.00
2022-09-12T23:16:14.171Z,40.40
2022-09-12T23:19:35.462Z,38.50
2022-09-12T23:23:03.150Z,37.00
2022-09-12T23:25:59.799Z,35.40
2022-09-12T23:29:30.681Z,38.70
2022-09-12T23:32:00.259Z,38.00
2022-09-12T23:35:28.370Z,38.90
2022-09-12T23:38:45.334Z,40.40
2022-09-12T23:41:37.194Z,37.80
2022-09-12T23:45:05.218Z,39.20
2022-09-12T23:48:32.963Z,30.60
2022-09-12T23:51:59.508Z,33.30
2022-09-12T23:55:30.320Z,37.80
2022-09-12T23:58:57.525Z,37.00
